sensor_id;sensor_type;location;lat;lon;timestamp;pressure;altitude;pressure_sealevel;temperature;humidity
22018;BME280;11173;51.050;7.108;2023-04-23T00:00:39;98764.97;;;9.99;69.72
22018;BME280;11173;51.050;7.108;2023-04-23T00:11:01;98752.81;;;9.92;70.27
22018;BME280;11173;51.050;7.108;2023-04-23T00:21:21;98751.69;;;9.90;70.46
22018;BME280;11173;51.050;7.108;2023-04-23T00:31:42;98756.13;;;9.87;70.26
22018;BME280;11173;51.050;7.108;2023-04-23T00:42:02;98740.75;;;9.83;70.50
22018;BME280;11173;51.050;7.108;2023-04-23T00:52:29;98741.63;;;9.80;70.75
22018;BME280;11173;51.050;7.108;2023-04-23T01:02:51;98739.81;;;9.73;70.65
22018;BME280;11173;51.050;7.108;2023-04-23T01:13:12;98732.97;;;9.61;71.33
22018;BME280;11173;51.050;7.108;2023-04-23T01:23:33;98730.91;;;9.49;71.13
22018;BME280;11173;51.050;7.108;2023-04-23T01:33:53;98728.13;;;9.32;71.60
22018;BME280;11173;51.050;7.108;2023-04-23T01:44:14;98719.00;;;9.15;72.73
22018;BME280;11173;51.050;7.108;2023-04-23T01:54:36;98740.59;;;9.08;73.23
22018;BME280;11173;51.050;7.108;2023-04-23T02:04:56;98737.09;;;8.87;73.45
22018;BME280;11173;51.050;7.108;2023-04-23T02:15:18;98731.50;;;8.71;73.13
22018;BME280;11173;51.050;7.108;2023-04-23T02:25:39;98728.59;;;8.58;74.69
22018;BME280;11173;51.050;7.108;2023-04-23T02:36:00;98737.84;;;8.51;75.41
22018;BME280;11173;51.050;7.108;2023-04-23T02:46:20;98726.19;;;8.40;75.67
22018;BME280;11173;51.050;7.108;2023-04-23T02:56:41;98722.88;;;8.29;74.73
22018;BME280;11173;51.050;7.108;2023-04-23T03:07:02;98718.88;;;8.10;75.87
22018;BME280;11173;51.050;7.108;2023-04-23T03:17:22;98706.72;;;8.04;76.73
22018;BME280;11173;51.050;7.108;2023-04-23T03:27:43;98699.03;;;8.11;77.63
22018;BME280;11173;51.050;7.108;2023-04-23T03:38:03;98706.34;;;8.22;76.94
22018;BME280;11173;51.050;7.108;2023-04-23T03:48:24;98694.41;;;8.25;77.38
22018;BME280;11173;51.050;7.108;2023-04-23T03:58:45;98701.16;;;8.24;76.59
22018;BME280;11173;51.050;7.108;2023-04-23T04:09:06;98692.91;;;8.20;77.05
22018;BME280;11173;51.050;7.108;2023-04-23T04:19:27;98700.66;;;8.29;76.53
22018;BME280;11173;51.050;7.108;2023-04-23T04:29:48;98687.34;;;8.20;76.19
22018;BME280;11173;51.050;7.108;2023-04-23T04:40:08;98685.38;;;8.21;77.36
22018;BME280;11173;51.050;7.108;2023-04-23T04:50:30;98692.81;;;8.44;77.20
22018;BME280;11173;51.050;7.108;2023-04-23T05:00:51;98682.66;;;8.73;77.50
22018;BME280;11173;51.050;7.108;2023-04-23T05:11:19;98698.69;;;9.19;76.69
22018;BME280;11173;51.050;7.108;2023-04-23T05:21:40;98704.38;;;9.61;76.35
22018;BME280;11173;51.050;7.108;2023-04-23T05:32:01;98712.47;;;10.01;75.49
22018;BME280;11173;51.050;7.108;2023-04-23T05:42:22;98712.25;;;10.37;75.24
22018;BME280;11173;51.050;7.108;2023-04-23T05:52:43;98706.28;;;10.77;75.07
22018;BME280;11173;51.050;7.108;2023-04-23T06:03:03;98712.06;;;11.21;74.78
22018;BME280;11173;51.050;7.108;2023-04-23T06:13:24;98710.69;;;11.64;74.35
22018;BME280;11173;51.050;7.108;2023-04-23T06:23:45;98705.28;;;12.05;74.34
22018;BME280;11173;51.050;7.108;2023-04-23T06:34:06;98686.03;;;12.51;74.83
22018;BME280;11173;51.050;7.108;2023-04-23T06:44:27;98692.34;;;13.05;74.38
22018;BME280;11173;51.050;7.108;2023-04-23T06:54:47;98693.53;;;13.63;74.07
22018;BME280;11173;51.050;7.108;2023-04-23T07:05:08;98692.03;;;13.99;72.34
22018;BME280;11173;51.050;7.108;2023-04-23T07:15:29;98671.63;;;14.17;71.72
22018;BME280;11173;51.050;7.108;2023-04-23T07:25:53;98672.03;;;14.52;72.99
22018;BME280;11173;51.050;7.108;2023-04-23T07:36:13;98664.41;;;14.95;71.82
22018;BME280;11173;51.050;7.108;2023-04-23T07:46:34;98662.59;;;15.16;71.93
22018;BME280;11173;51.050;7.108;2023-04-23T07:56:54;98649.16;;;15.44;71.91
22018;BME280;11173;51.050;7.108;2023-04-23T08:07:16;98639.34;;;16.18;73.43
22018;BME280;11173;51.050;7.108;2023-04-23T08:17:37;98645.97;;;16.95;69.76
22018;BME280;11173;51.050;7.108;2023-04-23T08:27:57;98640.47;;;17.41;68.38
22018;BME280;11173;51.050;7.108;2023-04-23T08:38:18;98646.03;;;17.77;68.43
22018;BME280;11173;51.050;7.108;2023-04-23T08:48:39;98641.84;;;18.19;68.03
22018;BME280;11173;51.050;7.108;2023-04-23T08:58:59;98634.31;;;18.62;66.65
22018;BME280;11173;51.050;7.108;2023-04-23T09:09:23;98624.97;;;18.82;61.10
22018;BME280;11173;51.050;7.108;2023-04-23T09:19:44;98615.81;;;18.93;65.53
22018;BME280;11173;51.050;7.108;2023-04-23T09:30:06;98601.69;;;18.93;64.94
22018;BME280;11173;51.050;7.108;2023-04-23T09:40:27;98610.63;;;19.29;66.24
22018;BME280;11173;51.050;7.108;2023-04-23T09:50:34;98581.81;;;19.19;62.71
22018;BME280;11173;51.050;7.108;2023-04-23T10:00:58;98580.56;;;18.77;64.20
22018;BME280;11173;51.050;7.108;2023-04-23T10:11:25;98559.34;;;18.87;65.76
22018;BME280;11173;51.050;7.108;2023-04-23T10:21:46;98558.56;;;19.36;59.43
22018;BME280;11173;51.050;7.108;2023-04-23T10:32:09;98560.47;;;19.84;61.53
22018;BME280;11173;51.050;7.108;2023-04-23T10:42:29;98556.63;;;19.98;61.84
22018;BME280;11173;51.050;7.108;2023-04-23T10:52:51;98540.22;;;20.08;55.04
22018;BME280;11173;51.050;7.108;2023-04-23T11:03:26;98519.38;;;20.34;59.90
22018;BME280;11173;51.050;7.108;2023-04-23T11:13:51;98520.16;;;20.34;52.30
22018;BME280;11173;51.050;7.108;2023-04-23T11:24:14;98504.22;;;20.31;55.07
22018;BME280;11173;51.050;7.108;2023-04-23T11:34:38;98488.28;;;20.28;47.77
22018;BME280;11173;51.050;7.108;2023-04-23T11:44:59;98481.63;;;20.09;54.32
22018;BME280;11173;51.050;7.108;2023-04-23T11:55:20;98478.53;;;20.06;59.12
22018;BME280;11173;51.050;7.108;2023-04-23T12:05:43;98455.91;;;19.90;60.22
22018;BME280;11173;51.050;7.108;2023-04-23T12:16:04;98443.84;;;20.06;59.94
22018;BME280;11173;51.050;7.108;2023-04-23T12:26:25;98420.66;;;20.24;47.42
22018;BME280;11173;51.050;7.108;2023-04-23T12:36:48;98411.22;;;20.11;49.29
22018;BME280;11173;51.050;7.108;2023-04-23T12:47:09;98405.31;;;19.63;49.32
22018;BME280;11173;51.050;7.108;2023-04-23T12:57:38;98394.00;;;19.30;56.37
22018;BME280;11173;51.050;7.108;2023-04-23T13:07:59;98380.84;;;19.04;44.43
22018;BME280;11173;51.050;7.108;2023-04-23T13:18:20;98369.53;;;18.93;56.22
22018;BME280;11173;51.050;7.108;2023-04-23T13:28:42;98346.72;;;18.96;57.49
22018;BME280;11173;51.050;7.108;2023-04-23T13:39:02;98338.78;;;19.06;43.68
22018;BME280;11173;51.050;7.108;2023-04-23T13:49:26;98329.06;;;19.46;55.75
22018;BME280;11173;51.050;7.108;2023-04-23T13:59:46;98306.38;;;20.03;55.52
22018;BME280;11173;51.050;7.108;2023-04-23T14:10:07;98289.84;;;20.24;46.97
22018;BME280;11173;51.050;7.108;2023-04-23T14:20:28;98279.13;;;20.05;53.08
22018;BME280;11173;51.050;7.108;2023-04-23T14:30:48;98259.75;;;19.57;54.70
22018;BME280;11173;51.050;7.108;2023-04-23T14:41:09;98241.78;;;18.86;54.61
22018;BME280;11173;51.050;7.108;2023-04-23T14:51:30;98226.56;;;18.27;55.64
22018;BME280;11173;51.050;7.108;2023-04-23T15:01:50;98222.53;;;17.80;56.60
22018;BME280;11173;51.050;7.108;2023-04-23T15:12:32;98189.53;;;17.32;55.98
22018;BME280;11173;51.050;7.108;2023-04-23T15:22:51;98193.13;;;17.00;55.78
22018;BME280;11173;51.050;7.108;2023-04-23T15:33:12;98186.72;;;16.68;56.39
22018;BME280;11173;51.050;7.108;2023-04-23T15:43:32;98177.28;;;16.39;57.72
22018;BME280;11173;51.050;7.108;2023-04-23T15:53:53;98179.84;;;16.17;58.77
22018;BME280;11173;51.050;7.108;2023-04-23T16:04:14;98172.44;;;15.93;59.07
22018;BME280;11173;51.050;7.108;2023-04-23T16:14:35;98172.66;;;15.69;60.17
22018;BME280;11173;51.050;7.108;2023-04-23T16:24:55;98181.84;;;15.28;59.42
22018;BME280;11173;51.050;7.108;2023-04-23T16:35:16;98191.22;;;14.60;59.58
22018;BME280;11173;51.050;7.108;2023-04-23T16:45:36;98214.84;;;13.76;61.65
22018;BME280;11173;51.050;7.108;2023-04-23T16:55:57;98182.34;;;12.97;63.74
22018;BME280;11173;51.050;7.108;2023-04-23T17:06:25;98147.25;;;12.53;64.10
22018;BME280;11173;51.050;7.108;2023-04-23T17:16:46;98102.09;;;12.12;67.70
22018;BME280;11173;51.050;7.108;2023-04-23T17:27:07;98111.13;;;11.88;65.50
22018;BME280;11173;51.050;7.108;2023-04-23T17:37:27;98103.22;;;11.68;65.38
22018;BME280;11173;51.050;7.108;2023-04-23T17:47:48;98102.28;;;11.53;65.78
22018;BME280;11173;51.050;7.108;2023-04-23T17:58:08;98083.38;;;11.39;67.32
22018;BME280;11173;51.050;7.108;2023-04-23T18:08:29;98069.13;;;11.27;66.19
22018;BME280;11173;51.050;7.108;2023-04-23T18:18:50;98065.22;;;11.15;65.88
22018;BME280;11173;51.050;7.108;2023-04-23T18:29:11;98058.88;;;11.06;66.19
22018;BME280;11173;51.050;7.108;2023-04-23T18:39:32;98066.16;;;11.03;66.64
22018;BME280;11173;51.050;7.108;2023-04-23T18:49:52;98060.75;;;11.09;67.22
22018;BME280;11173;51.050;7.108;2023-04-23T19:00:15;98056.72;;;11.10;67.18
22018;BME280;11173;51.050;7.108;2023-04-23T19:10:35;98058.59;;;11.13;67.24
22018;BME280;11173;51.050;7.108;2023-04-23T19:20:56;98066.97;;;11.22;67.42
22018;BME280;11173;51.050;7.108;2023-04-23T19:31:17;98075.31;;;11.31;67.29
22018;BME280;11173;51.050;7.108;2023-04-23T19:41:38;98087.69;;;11.40;67.45
22018;BME280;11173;51.050;7.108;2023-04-23T19:51:58;98092.66;;;11.45;67.51
22018;BME280;11173;51.050;7.108;2023-04-23T20:02:21;98107.84;;;11.44;67.33
22018;BME280;11173;51.050;7.108;2023-04-23T20:12:41;98116.19;;;11.25;66.03
22018;BME280;11173;51.050;7.108;2023-04-23T20:23:02;98125.75;;;10.97;67.13
22018;BME280;11173;51.050;7.108;2023-04-23T20:33:23;98140.25;;;10.91;67.34
22018;BME280;11173;51.050;7.108;2023-04-23T20:43:43;98147.72;;;10.94;66.58
22018;BME280;11173;51.050;7.108;2023-04-23T20:54:04;98148.66;;;11.01;65.53
22018;BME280;11173;51.050;7.108;2023-04-23T21:04:24;98154.53;;;11.03;65.03
22018;BME280;11173;51.050;7.108;2023-04-23T21:14:45;98143.41;;;11.03;63.38
22018;BME280;11173;51.050;7.108;2023-04-23T21:25:06;98125.44;;;11.04;61.74
22018;BME280;11173;51.050;7.108;2023-04-23T21:35:27;98140.78;;;11.08;62.36
22018;BME280;11173;51.050;7.108;2023-04-23T21:45:47;98135.97;;;11.09;63.67
22018;BME280;11173;51.050;7.108;2023-04-23T21:56:08;98134.59;;;11.04;61.60
22018;BME280;11173;51.050;7.108;2023-04-23T22:06:29;98123.44;;;11.04;61.87
22018;BME280;11173;51.050;7.108;2023-04-23T22:16:49;98118.00;;;11.01;62.64
22018;BME280;11173;51.050;7.108;2023-04-23T22:27:10;98118.00;;;11.01;61.93
22018;BME280;11173;51.050;7.108;2023-04-23T22:37:31;98125.88;;;10.93;62.83
22018;BME280;11173;51.050;7.108;2023-04-23T22:47:51;98132.22;;;10.84;63.79
22018;BME280;11173;51.050;7.108;2023-04-23T22:58:12;98131.25;;;10.78;63.46
22018;BME280;11173;51.050;7.108;2023-04-23T23:08:33;98128.56;;;10.65;62.76
22018;BME280;11173;51.050;7.108;2023-04-23T23:18:53;98115.59;;;10.62;63.60
22018;BME280;11173;51.050;7.108;2023-04-23T23:29:14;98107.69;;;10.61;63.49
22018;BME280;11173;51.050;7.108;2023-04-23T23:39:35;98106.13;;;10.60;62.76
22018;BME280;11173;51.050;7.108;2023-04-23T23:49:55;98104.13;;;10.60;63.91
